Port Hardy Airport
CYZT : now visible

Airfield :











YOU CAN JOIN US ON...

 
LOGIN :

Register | Disclaimer

   EN    FR    IT 

 









Legend :    VFR   Marginal VFR   IFR   Intensive IFR   Very Intensive IFR
Visi :
Ceiling :
>= 8 km
>= 3000ft
5 to 8 km
1000 to 3000 ft
1500m to 5 km
500 to 1000 ft
800 to 1500m
200 to 500 ft
< 800m
< 200 ft
Symbols :   Thunderstorms  Fog  Heavy snow  Heavy precipitations  Wind > 20 kt







- Airport Elevation : 71 ft
- IATA code : YZT


CYZT - Port Hardy

CURRENT METAR :
  • 181200Z 27002KT 15SM FEW033 09/09 A2985 RMK SC1 SLP110

EXPIRED METARs :
  • 181100Z 00000KT 15SM FEW035 10/10 A2984 RMK SC2 SLP106
  • 181000Z 19004KT 15SM BKN035 11/11 A2983 RMK SC6 SLP104

TAF TAF CYZT
Valid from the 18 at 07:00 until the 18 at 19:00 UTC


180641Z 1807/1819 VRB03KT P6SM SCT020
TEMPO 1807/1809 SCT008 BKN020
FM180900 VRB03KT P6SM FEW008 SCT012
TEMPO 1809/1819 2SM BR BKN008 OVC015
PROB30 1809/1817 1/2SM FG VV002 RMK NXT FCST BY 181300Z
No reported NOTAMs for that airfield.



MET'MAP, your aeronautical weather chart ! - Copyright ORBIFLY December 2007 - Disclaimer

ORBIFLY MET'MAP TEAM :

Programming & Development : Alexandra Zaïnal
Concept & Development : Baudouin d'Aumeries
Co-Development & Prog : Marc-Olivier Méhu
Technical & hardware support : Manuel Goepfert

Contact : metmap@orbifly.com




SOURCES & CREDITS :

   NOAA       Earth
Advisory